sensor_id;sensor_type;location;lat;lon;timestamp;P1;durP1;ratioP1;P2;durP2;ratioP2
68377;SDS011;55322;48.146;11.516;2023-03-24T00:02:06;8.52;;;2.30;;
68377;SDS011;55322;48.146;11.516;2023-03-24T00:04:31;6.07;;;1.80;;
68377;SDS011;55322;48.146;11.516;2023-03-24T00:06:57;6.97;;;1.87;;
68377;SDS011;55322;48.146;11.516;2023-03-24T00:09:25;6.32;;;2.00;;
68377;SDS011;55322;48.146;11.516;2023-03-24T00:11:52;5.60;;;1.80;;
68377;SDS011;55322;48.146;11.516;2023-03-24T00:14:18;7.80;;;2.53;;
68377;SDS011;55322;48.146;11.516;2023-03-24T00:16:43;6.37;;;1.87;;
68377;SDS011;55322;48.146;11.516;2023-03-24T00:19:09;6.35;;;1.80;;
68377;SDS011;55322;48.146;11.516;2023-03-24T00:21:37;5.75;;;1.80;;
68377;SDS011;55322;48.146;11.516;2023-03-24T00:24:03;7.57;;;1.70;;
68377;SDS011;55322;48.146;11.516;2023-03-24T00:26:31;5.43;;;1.77;;
68377;SDS011;55322;48.146;11.516;2023-03-24T00:28:57;6.53;;;1.65;;
68377;SDS011;55322;48.146;11.516;2023-03-24T00:31:23;6.93;;;1.60;;
68377;SDS011;55322;48.146;11.516;2023-03-24T00:33:49;8.52;;;1.90;;
68377;SDS011;55322;48.146;11.516;2023-03-24T00:36:15;6.28;;;2.00;;
68377;SDS011;55322;48.146;11.516;2023-03-24T00:38:43;6.33;;;1.80;;
68377;SDS011;55322;48.146;11.516;2023-03-24T00:41:11;5.72;;;1.80;;
68377;SDS011;55322;48.146;11.516;2023-03-24T00:43:37;6.70;;;2.10;;
68377;SDS011;55322;48.146;11.516;2023-03-24T00:46:04;7.10;;;1.80;;
68377;SDS011;55322;48.146;11.516;2023-03-24T00:48:32;8.32;;;1.95;;
68377;SDS011;55322;48.146;11.516;2023-03-24T00:51:00;6.60;;;2.00;;
68377;SDS011;55322;48.146;11.516;2023-03-24T00:53:27;6.53;;;1.90;;
68377;SDS011;55322;48.146;11.516;2023-03-24T00:55:54;7.50;;;1.85;;
68377;SDS011;55322;48.146;11.516;2023-03-24T00:58:20;6.47;;;1.98;;
68377;SDS011;55322;48.146;11.516;2023-03-24T01:00:46;5.70;;;1.70;;
68377;SDS011;55322;48.146;11.516;2023-03-24T01:03:13;7.32;;;1.90;;
68377;SDS011;55322;48.146;11.516;2023-03-24T01:05:40;7.15;;;2.20;;
68377;SDS011;55322;48.146;11.516;2023-03-24T01:08:06;5.43;;;1.73;;
68377;SDS011;55322;48.146;11.516;2023-03-24T01:10:33;6.47;;;1.85;;
68377;SDS011;55322;48.146;11.516;2023-03-24T01:13:06;7.03;;;2.10;;
68377;SDS011;55322;48.146;11.516;2023-03-24T01:15:32;5.35;;;1.73;;
68377;SDS011;55322;48.146;11.516;2023-03-24T01:18:00;5.45;;;1.90;;
68377;SDS011;55322;48.146;11.516;2023-03-24T01:20:26;6.77;;;1.80;;
68377;SDS011;55322;48.146;11.516;2023-03-24T01:22:52;6.13;;;1.92;;
68377;SDS011;55322;48.146;11.516;2023-03-24T01:25:18;5.47;;;2.00;;
68377;SDS011;55322;48.146;11.516;2023-03-24T01:27:46;6.55;;;2.10;;
68377;SDS011;55322;48.146;11.516;2023-03-24T01:30:13;5.38;;;1.90;;
68377;SDS011;55322;48.146;11.516;2023-03-24T01:32:40;6.20;;;2.20;;
68377;SDS011;55322;48.146;11.516;2023-03-24T01:35:06;7.13;;;2.33;;
68377;SDS011;55322;48.146;11.516;2023-03-24T01:37:32;6.47;;;2.20;;
68377;SDS011;55322;48.146;11.516;2023-03-24T01:39:58;6.83;;;2.10;;
68377;SDS011;55322;48.146;11.516;2023-03-24T01:42:24;6.47;;;1.90;;
68377;SDS011;55322;48.146;11.516;2023-03-24T01:44:53;6.47;;;2.10;;
68377;SDS011;55322;48.146;11.516;2023-03-24T01:47:24;6.70;;;2.00;;
68377;SDS011;55322;48.146;11.516;2023-03-24T01:49:51;10.23;;;2.37;;
68377;SDS011;55322;48.146;11.516;2023-03-24T01:52:21;7.70;;;2.00;;
68377;SDS011;55322;48.146;11.516;2023-03-24T01:54:59;5.80;;;1.92;;
68377;SDS011;55322;48.146;11.516;2023-03-24T01:57:39;5.38;;;1.95;;
68377;SDS011;55322;48.146;11.516;2023-03-24T02:00:11;5.65;;;1.98;;
68377;SDS011;55322;48.146;11.516;2023-03-24T02:02:39;6.55;;;2.00;;
68377;SDS011;55322;48.146;11.516;2023-03-24T02:05:07;5.60;;;2.00;;
68377;SDS011;55322;48.146;11.516;2023-03-24T02:07:37;7.63;;;2.10;;
68377;SDS011;55322;48.146;11.516;2023-03-24T02:10:11;7.53;;;2.00;;
68377;SDS011;55322;48.146;11.516;2023-03-24T02:12:40;6.30;;;1.92;;
68377;SDS011;55322;48.146;11.516;2023-03-24T02:15:07;6.22;;;1.70;;
68377;SDS011;55322;48.146;11.516;2023-03-24T02:18:17;7.03;;;1.97;;
68377;SDS011;55322;48.146;11.516;2023-03-24T02:26:04;6.57;;;2.20;;
68377;SDS011;55322;48.146;11.516;2023-03-24T02:28:56;6.43;;;2.10;;
68377;SDS011;55322;48.146;11.516;2023-03-24T02:31:49;6.47;;;2.13;;
68377;SDS011;55322;48.146;11.516;2023-03-24T02:40:21;6.05;;;2.00;;
68377;SDS011;55322;48.146;11.516;2023-03-24T02:43:13;7.60;;;2.20;;
68377;SDS011;55322;48.146;11.516;2023-03-24T02:51:16;6.18;;;2.05;;
68377;SDS011;55322;48.146;11.516;2023-03-24T02:54:11;6.05;;;2.05;;
68377;SDS011;55322;48.146;11.516;2023-03-24T02:59:17;7.10;;;2.30;;
68377;SDS011;55322;48.146;11.516;2023-03-24T03:04:20;5.95;;;1.95;;
68377;SDS011;55322;48.146;11.516;2023-03-24T03:06:52;6.10;;;2.20;;
68377;SDS011;55322;48.146;11.516;2023-03-24T03:09:22;6.20;;;2.00;;
68377;SDS011;55322;48.146;11.516;2023-03-24T03:11:50;7.20;;;2.60;;
68377;SDS011;55322;48.146;11.516;2023-03-24T03:17:01;7.28;;;2.30;;
68377;SDS011;55322;48.146;11.516;2023-03-24T03:19:37;7.78;;;2.25;;
68377;SDS011;55322;48.146;11.516;2023-03-24T03:22:07;6.93;;;2.30;;
68377;SDS011;55322;48.146;11.516;2023-03-24T03:24:40;5.90;;;2.13;;
68377;SDS011;55322;48.146;11.516;2023-03-24T03:27:10;6.00;;;2.13;;
68377;SDS011;55322;48.146;11.516;2023-03-24T03:29:42;6.05;;;2.05;;
68377;SDS011;55322;48.146;11.516;2023-03-24T03:32:12;7.65;;;2.13;;
68377;SDS011;55322;48.146;11.516;2023-03-24T03:34:47;5.97;;;2.25;;
68377;SDS011;55322;48.146;11.516;2023-03-24T03:37:26;7.60;;;2.20;;
68377;SDS011;55322;48.146;11.516;2023-03-24T03:40:29;6.22;;;2.40;;
68377;SDS011;55322;48.146;11.516;2023-03-24T03:42:59;6.57;;;2.40;;
68377;SDS011;55322;48.146;11.516;2023-03-24T03:45:24;6.40;;;2.57;;
68377;SDS011;55322;48.146;11.516;2023-03-24T03:47:50;8.75;;;2.40;;
68377;SDS011;55322;48.146;11.516;2023-03-24T03:50:15;6.17;;;2.23;;
68377;SDS011;55322;48.146;11.516;2023-03-24T03:52:41;7.87;;;2.23;;
68377;SDS011;55322;48.146;11.516;2023-03-24T03:55:08;6.35;;;2.15;;
68377;SDS011;55322;48.146;11.516;2023-03-24T03:57:35;6.90;;;2.20;;
68377;SDS011;55322;48.146;11.516;2023-03-24T04:00:02;7.70;;;2.40;;
68377;SDS011;55322;48.146;11.516;2023-03-24T04:02:43;6.90;;;2.73;;
68377;SDS011;55322;48.146;11.516;2023-03-24T04:05:28;6.57;;;2.65;;
68377;SDS011;55322;48.146;11.516;2023-03-24T04:07:59;6.10;;;2.33;;
68377;SDS011;55322;48.146;11.516;2023-03-24T04:13:20;6.72;;;2.50;;
68377;SDS011;55322;48.146;11.516;2023-03-24T04:15:59;6.37;;;2.40;;
68377;SDS011;55322;48.146;11.516;2023-03-24T04:18:40;6.03;;;2.63;;
68377;SDS011;55322;48.146;11.516;2023-03-24T04:32:44;6.82;;;2.60;;
68377;SDS011;55322;48.146;11.516;2023-03-24T04:35:18;6.53;;;2.60;;
68377;SDS011;55322;48.146;11.516;2023-03-24T04:37:55;7.78;;;2.75;;
68377;SDS011;55322;48.146;11.516;2023-03-24T04:40:26;7.57;;;3.08;;
68377;SDS011;55322;48.146;11.516;2023-03-24T04:42:54;7.47;;;2.73;;
68377;SDS011;55322;48.146;11.516;2023-03-24T04:45:21;7.63;;;3.00;;
68377;SDS011;55322;48.146;11.516;2023-03-24T04:47:53;7.18;;;2.97;;
68377;SDS011;55322;48.146;11.516;2023-03-24T04:50:26;10.35;;;3.20;;
68377;SDS011;55322;48.146;11.516;2023-03-24T04:52:56;8.48;;;3.13;;
68377;SDS011;55322;48.146;11.516;2023-03-24T04:57:56;7.57;;;2.90;;
68377;SDS011;55322;48.146;11.516;2023-03-24T05:00:21;8.83;;;3.00;;
68377;SDS011;55322;48.146;11.516;2023-03-24T05:02:46;7.67;;;2.97;;
68377;SDS011;55322;48.146;11.516;2023-03-24T05:05:12;6.60;;;2.60;;
68377;SDS011;55322;48.146;11.516;2023-03-24T05:07:38;6.27;;;2.63;;
68377;SDS011;55322;48.146;11.516;2023-03-24T05:10:04;8.05;;;3.10;;
68377;SDS011;55322;48.146;11.516;2023-03-24T05:12:30;7.83;;;2.93;;
68377;SDS011;55322;48.146;11.516;2023-03-24T05:14:55;5.83;;;2.50;;
68377;SDS011;55322;48.146;11.516;2023-03-24T05:17:21;6.40;;;2.70;;
68377;SDS011;55322;48.146;11.516;2023-03-24T05:19:46;7.23;;;2.70;;
68377;SDS011;55322;48.146;11.516;2023-03-24T05:22:11;7.77;;;2.60;;
68377;SDS011;55322;48.146;11.516;2023-03-24T05:24:36;9.03;;;3.10;;
68377;SDS011;55322;48.146;11.516;2023-03-24T05:27:04;8.60;;;3.15;;
68377;SDS011;55322;48.146;11.516;2023-03-24T05:29:29;8.87;;;2.53;;
68377;SDS011;55322;48.146;11.516;2023-03-24T05:31:54;6.57;;;2.80;;
68377;SDS011;55322;48.146;11.516;2023-03-24T05:34:20;6.70;;;2.93;;
68377;SDS011;55322;48.146;11.516;2023-03-24T05:36:46;6.35;;;2.65;;
68377;SDS011;55322;48.146;11.516;2023-03-24T05:39:11;8.13;;;2.70;;
68377;SDS011;55322;48.146;11.516;2023-03-24T05:41:37;7.13;;;2.40;;
68377;SDS011;55322;48.146;11.516;2023-03-24T05:44:02;5.90;;;2.23;;
68377;SDS011;55322;48.146;11.516;2023-03-24T05:46:27;6.93;;;2.50;;
68377;SDS011;55322;48.146;11.516;2023-03-24T05:48:53;7.23;;;2.47;;
68377;SDS011;55322;48.146;11.516;2023-03-24T05:51:18;7.50;;;2.50;;
68377;SDS011;55322;48.146;11.516;2023-03-24T05:53:43;6.37;;;2.47;;
68377;SDS011;55322;48.146;11.516;2023-03-24T05:56:09;6.83;;;2.63;;
68377;SDS011;55322;48.146;11.516;2023-03-24T05:58:37;7.07;;;2.75;;
68377;SDS011;55322;48.146;11.516;2023-03-24T06:01:07;6.38;;;2.70;;
68377;SDS011;55322;48.146;11.516;2023-03-24T06:03:34;7.68;;;3.05;;
68377;SDS011;55322;48.146;11.516;2023-03-24T06:06:03;6.97;;;2.80;;
68377;SDS011;55322;48.146;11.516;2023-03-24T06:08:32;7.97;;;2.60;;
68377;SDS011;55322;48.146;11.516;2023-03-24T06:11:01;7.85;;;2.65;;
68377;SDS011;55322;48.146;11.516;2023-03-24T06:13:28;7.60;;;3.03;;
68377;SDS011;55322;48.146;11.516;2023-03-24T06:15:55;9.30;;;3.20;;
68377;SDS011;55322;48.146;11.516;2023-03-24T06:18:22;7.75;;;2.65;;
68377;SDS011;55322;48.146;11.516;2023-03-24T06:20:48;5.82;;;2.70;;
68377;SDS011;55322;48.146;11.516;2023-03-24T06:23:15;7.32;;;2.95;;
68377;SDS011;55322;48.146;11.516;2023-03-24T06:25:41;9.75;;;3.92;;
68377;SDS011;55322;48.146;11.516;2023-03-24T06:28:11;6.50;;;2.70;;
68377;SDS011;55322;48.146;11.516;2023-03-24T06:30:38;7.43;;;2.80;;
68377;SDS011;55322;48.146;11.516;2023-03-24T06:33:04;8.98;;;2.80;;
68377;SDS011;55322;48.146;11.516;2023-03-24T06:35:30;8.40;;;3.07;;
68377;SDS011;55322;48.146;11.516;2023-03-24T06:37:55;8.53;;;3.37;;
68377;SDS011;55322;48.146;11.516;2023-03-24T06:40:20;9.40;;;3.67;;
68377;SDS011;55322;48.146;11.516;2023-03-24T06:42:46;8.20;;;3.37;;
68377;SDS011;55322;48.146;11.516;2023-03-24T06:45:13;8.50;;;3.67;;
68377;SDS011;55322;48.146;11.516;2023-03-24T06:47:39;8.07;;;3.53;;
68377;SDS011;55322;48.146;11.516;2023-03-24T06:50:05;10.53;;;3.90;;
68377;SDS011;55322;48.146;11.516;2023-03-24T06:52:31;10.02;;;4.18;;
68377;SDS011;55322;48.146;11.516;2023-03-24T06:54:57;9.35;;;4.10;;
68377;SDS011;55322;48.146;11.516;2023-03-24T06:57:22;8.80;;;3.70;;
68377;SDS011;55322;48.146;11.516;2023-03-24T06:59:47;8.97;;;4.13;;
68377;SDS011;55322;48.146;11.516;2023-03-24T07:02:13;10.20;;;3.90;;
68377;SDS011;55322;48.146;11.516;2023-03-24T07:04:38;8.73;;;4.17;;
68377;SDS011;55322;48.146;11.516;2023-03-24T07:07:03;9.23;;;3.90;;
68377;SDS011;55322;48.146;11.516;2023-03-24T07:09:29;9.37;;;4.33;;
68377;SDS011;55322;48.146;11.516;2023-03-24T07:11:54;10.35;;;4.55;;
68377;SDS011;55322;48.146;11.516;2023-03-24T07:14:20;9.07;;;4.60;;
68377;SDS011;55322;48.146;11.516;2023-03-24T07:16:46;10.27;;;4.28;;
68377;SDS011;55322;48.146;11.516;2023-03-24T07:19:11;10.97;;;4.10;;
68377;SDS011;55322;48.146;11.516;2023-03-24T07:21:36;10.50;;;4.47;;
68377;SDS011;55322;48.146;11.516;2023-03-24T07:24:02;9.33;;;4.50;;
68377;SDS011;55322;48.146;11.516;2023-03-24T07:26:27;11.55;;;4.35;;
68377;SDS011;55322;48.146;11.516;2023-03-24T07:28:53;9.17;;;4.60;;
68377;SDS011;55322;48.146;11.516;2023-03-24T07:31:18;9.07;;;4.73;;
68377;SDS011;55322;48.146;11.516;2023-03-24T07:33:44;8.50;;;4.20;;
68377;SDS011;55322;48.146;11.516;2023-03-24T07:36:09;14.35;;;5.15;;
68377;SDS011;55322;48.146;11.516;2023-03-24T07:38:35;9.13;;;4.63;;
68377;SDS011;55322;48.146;11.516;2023-03-24T07:41:00;10.37;;;3.87;;
68377;SDS011;55322;48.146;11.516;2023-03-24T07:43:26;9.90;;;4.35;;
68377;SDS011;55322;48.146;11.516;2023-03-24T07:45:51;10.77;;;4.43;;
68377;SDS011;55322;48.146;11.516;2023-03-24T07:48:17;10.37;;;4.53;;
68377;SDS011;55322;48.146;11.516;2023-03-24T07:50:42;12.93;;;4.70;;
68377;SDS011;55322;48.146;11.516;2023-03-24T07:53:08;9.15;;;4.00;;
68377;SDS011;55322;48.146;11.516;2023-03-24T07:55:36;8.50;;;4.10;;
68377;SDS011;55322;48.146;11.516;2023-03-24T07:58:02;10.52;;;3.88;;
68377;SDS011;55322;48.146;11.516;2023-03-24T08:00:28;7.95;;;3.72;;
68377;SDS011;55322;48.146;11.516;2023-03-24T08:02:54;11.25;;;4.20;;
68377;SDS011;55322;48.146;11.516;2023-03-24T08:05:20;9.80;;;3.70;;
68377;SDS011;55322;48.146;11.516;2023-03-24T08:07:47;7.57;;;3.22;;
68377;SDS011;55322;48.146;11.516;2023-03-24T08:10:17;7.60;;;2.87;;
68377;SDS011;55322;48.146;11.516;2023-03-24T08:12:45;7.95;;;2.97;;
68377;SDS011;55322;48.146;11.516;2023-03-24T08:15:11;6.93;;;3.05;;
68377;SDS011;55322;48.146;11.516;2023-03-24T08:17:37;7.80;;;2.70;;
68377;SDS011;55322;48.146;11.516;2023-03-24T08:20:03;6.43;;;2.60;;
68377;SDS011;55322;48.146;11.516;2023-03-24T08:22:33;6.63;;;2.95;;
68377;SDS011;55322;48.146;11.516;2023-03-24T08:24:58;6.37;;;2.77;;
68377;SDS011;55322;48.146;11.516;2023-03-24T08:27:24;7.72;;;2.70;;
68377;SDS011;55322;48.146;11.516;2023-03-24T08:29:49;6.57;;;2.70;;
68377;SDS011;55322;48.146;11.516;2023-03-24T08:32:15;5.77;;;2.40;;
68377;SDS011;55322;48.146;11.516;2023-03-24T08:34:40;6.30;;;2.60;;
68377;SDS011;55322;48.146;11.516;2023-03-24T08:37:05;7.63;;;2.55;;
68377;SDS011;55322;48.146;11.516;2023-03-24T08:39:31;7.07;;;2.70;;
68377;SDS011;55322;48.146;11.516;2023-03-24T08:41:59;6.93;;;2.47;;
68377;SDS011;55322;48.146;11.516;2023-03-24T08:44:25;6.85;;;2.65;;
68377;SDS011;55322;48.146;11.516;2023-03-24T08:46:50;5.93;;;2.60;;
68377;SDS011;55322;48.146;11.516;2023-03-24T08:49:16;7.57;;;2.70;;
68377;SDS011;55322;48.146;11.516;2023-03-24T08:51:42;7.17;;;2.70;;
68377;SDS011;55322;48.146;11.516;2023-03-24T08:54:07;9.13;;;2.38;;
68377;SDS011;55322;48.146;11.516;2023-03-24T08:56:33;7.15;;;2.60;;
68377;SDS011;55322;48.146;11.516;2023-03-24T08:58:58;5.50;;;2.20;;
68377;SDS011;55322;48.146;11.516;2023-03-24T09:01:24;6.47;;;2.50;;
68377;SDS011;55322;48.146;11.516;2023-03-24T09:03:49;6.63;;;2.30;;
68377;SDS011;55322;48.146;11.516;2023-03-24T09:06:15;6.57;;;2.42;;
68377;SDS011;55322;48.146;11.516;2023-03-24T09:08:41;6.20;;;2.55;;
68377;SDS011;55322;48.146;11.516;2023-03-24T09:11:11;6.57;;;2.63;;
68377;SDS011;55322;48.146;11.516;2023-03-24T09:13:38;6.13;;;2.38;;
68377;SDS011;55322;48.146;11.516;2023-03-24T09:16:04;7.00;;;2.50;;
68377;SDS011;55322;48.146;11.516;2023-03-24T09:18:29;6.83;;;2.97;;
68377;SDS011;55322;48.146;11.516;2023-03-24T09:20:55;6.63;;;2.50;;
68377;SDS011;55322;48.146;11.516;2023-03-24T09:23:21;5.73;;;2.30;;
68377;SDS011;55322;48.146;11.516;2023-03-24T09:25:47;6.95;;;2.42;;
68377;SDS011;55322;48.146;11.516;2023-03-24T09:28:14;7.40;;;2.35;;
68377;SDS011;55322;48.146;11.516;2023-03-24T09:30:40;5.93;;;2.20;;
68377;SDS011;55322;48.146;11.516;2023-03-24T09:33:06;5.93;;;1.90;;
68377;SDS011;55322;48.146;11.516;2023-03-24T09:35:31;6.73;;;1.90;;
68377;SDS011;55322;48.146;11.516;2023-03-24T09:37:56;7.40;;;2.10;;
68377;SDS011;55322;48.146;11.516;2023-03-24T09:40:23;6.22;;;2.10;;
68377;SDS011;55322;48.146;11.516;2023-03-24T09:42:53;5.37;;;2.07;;
68377;SDS011;55322;48.146;11.516;2023-03-24T09:45:24;6.43;;;1.90;;
68377;SDS011;55322;48.146;11.516;2023-03-24T09:47:52;6.53;;;2.30;;
68377;SDS011;55322;48.146;11.516;2023-03-24T09:50:26;5.13;;;1.80;;
68377;SDS011;55322;48.146;11.516;2023-03-24T09:52:59;6.15;;;2.05;;
68377;SDS011;55322;48.146;11.516;2023-03-24T09:55:30;6.17;;;2.10;;
68377;SDS011;55322;48.146;11.516;2023-03-24T09:57:58;6.85;;;2.17;;
68377;SDS011;55322;48.146;11.516;2023-03-24T10:00:31;5.93;;;1.93;;
68377;SDS011;55322;48.146;11.516;2023-03-24T10:02:59;7.13;;;2.55;;
68377;SDS011;55322;48.146;11.516;2023-03-24T10:08:34;7.95;;;2.40;;
68377;SDS011;55322;48.146;11.516;2023-03-24T10:11:22;6.78;;;2.22;;
68377;SDS011;55322;48.146;11.516;2023-03-24T10:22:21;6.88;;;2.33;;
68377;SDS011;55322;48.146;11.516;2023-03-24T10:24:58;6.60;;;2.53;;
68377;SDS011;55322;48.146;11.516;2023-03-24T10:27:41;6.63;;;2.37;;
68377;SDS011;55322;48.146;11.516;2023-03-24T10:30:15;5.80;;;2.47;;
68377;SDS011;55322;48.146;11.516;2023-03-24T10:32:44;6.43;;;2.42;;
68377;SDS011;55322;48.146;11.516;2023-03-24T10:35:14;7.85;;;2.70;;
68377;SDS011;55322;48.146;11.516;2023-03-24T10:37:45;6.70;;;2.38;;
68377;SDS011;55322;48.146;11.516;2023-03-24T10:40:15;6.20;;;2.30;;
68377;SDS011;55322;48.146;11.516;2023-03-24T10:42:43;6.18;;;2.13;;
68377;SDS011;55322;48.146;11.516;2023-03-24T10:45:11;6.45;;;2.30;;
68377;SDS011;55322;48.146;11.516;2023-03-24T10:47:42;6.90;;;2.53;;
68377;SDS011;55322;48.146;11.516;2023-03-24T10:50:08;5.93;;;2.17;;
68377;SDS011;55322;48.146;11.516;2023-03-24T10:52:41;7.75;;;2.30;;
68377;SDS011;55322;48.146;11.516;2023-03-24T10:55:13;5.57;;;1.80;;
68377;SDS011;55322;48.146;11.516;2023-03-24T10:57:42;5.65;;;1.88;;
68377;SDS011;55322;48.146;11.516;2023-03-24T11:00:14;6.00;;;2.00;;
68377;SDS011;55322;48.146;11.516;2023-03-24T11:02:52;6.82;;;2.20;;
68377;SDS011;55322;48.146;11.516;2023-03-24T11:05:20;5.95;;;1.50;;
68377;SDS011;55322;48.146;11.516;2023-03-24T11:07:47;4.53;;;1.30;;
68377;SDS011;55322;48.146;11.516;2023-03-24T11:10:15;5.80;;;1.80;;
68377;SDS011;55322;48.146;11.516;2023-03-24T11:15:18;5.20;;;1.70;;
68377;SDS011;55322;48.146;11.516;2023-03-24T11:17:44;6.50;;;1.90;;
68377;SDS011;55322;48.146;11.516;2023-03-24T11:20:15;5.97;;;1.77;;
68377;SDS011;55322;48.146;11.516;2023-03-24T11:22:48;5.75;;;1.63;;
68377;SDS011;55322;48.146;11.516;2023-03-24T11:25:24;5.90;;;1.83;;
68377;SDS011;55322;48.146;11.516;2023-03-24T11:27:52;5.15;;;1.60;;
68377;SDS011;55322;48.146;11.516;2023-03-24T11:30:25;6.80;;;1.70;;
68377;SDS011;55322;48.146;11.516;2023-03-24T11:32:55;5.18;;;2.00;;
68377;SDS011;55322;48.146;11.516;2023-03-24T11:35:21;6.53;;;1.80;;
68377;SDS011;55322;48.146;11.516;2023-03-24T11:37:47;4.93;;;1.73;;
68377;SDS011;55322;48.146;11.516;2023-03-24T11:42:46;5.75;;;2.05;;
68377;SDS011;55322;48.146;11.516;2023-03-24T11:48:09;6.60;;;1.95;;
68377;SDS011;55322;48.146;11.516;2023-03-24T11:50:41;6.07;;;1.70;;
68377;SDS011;55322;48.146;11.516;2023-03-24T11:55:43;6.32;;;1.80;;
68377;SDS011;55322;48.146;11.516;2023-03-24T11:58:25;5.93;;;1.80;;
68377;SDS011;55322;48.146;11.516;2023-03-24T12:00:57;6.53;;;1.85;;
68377;SDS011;55322;48.146;11.516;2023-03-24T12:06:29;5.75;;;1.80;;
68377;SDS011;55322;48.146;11.516;2023-03-24T12:17:32;4.60;;;1.42;;
68377;SDS011;55322;48.146;11.516;2023-03-24T12:23:25;4.63;;;1.45;;
68377;SDS011;55322;48.146;11.516;2023-03-24T12:28:37;4.20;;;1.25;;
68377;SDS011;55322;48.146;11.516;2023-03-24T12:39:47;4.10;;;1.10;;
68377;SDS011;55322;48.146;11.516;2023-03-24T12:42:41;5.40;;;1.13;;
68377;SDS011;55322;48.146;11.516;2023-03-24T12:50:27;5.38;;;1.05;;
68377;SDS011;55322;48.146;11.516;2023-03-24T12:55:55;4.25;;;1.17;;
68377;SDS011;55322;48.146;11.516;2023-03-24T12:58:34;4.22;;;1.00;;
68377;SDS011;55322;48.146;11.516;2023-03-24T13:04:01;3.90;;;0.90;;
68377;SDS011;55322;48.146;11.516;2023-03-24T13:06:33;4.20;;;0.87;;
68377;SDS011;55322;48.146;11.516;2023-03-24T13:09:16;4.25;;;1.30;;
68377;SDS011;55322;48.146;11.516;2023-03-24T13:12:15;6.40;;;1.60;;
68377;SDS011;55322;48.146;11.516;2023-03-24T13:17:41;4.20;;;1.02;;
68377;SDS011;55322;48.146;11.516;2023-03-24T13:20:12;4.20;;;0.80;;
68377;SDS011;55322;48.146;11.516;2023-03-24T13:22:40;3.70;;;1.00;;
68377;SDS011;55322;48.146;11.516;2023-03-24T13:25:09;4.43;;;1.03;;
68377;SDS011;55322;48.146;11.516;2023-03-24T13:27:46;4.60;;;1.23;;
68377;SDS011;55322;48.146;11.516;2023-03-24T13:32:59;4.43;;;1.10;;
68377;SDS011;55322;48.146;11.516;2023-03-24T13:35:39;4.45;;;1.20;;
68377;SDS011;55322;48.146;11.516;2023-03-24T13:38:17;4.85;;;1.05;;
68377;SDS011;55322;48.146;11.516;2023-03-24T13:40:49;4.73;;;1.20;;
68377;SDS011;55322;48.146;11.516;2023-03-24T13:43:18;4.97;;;1.10;;
68377;SDS011;55322;48.146;11.516;2023-03-24T13:45:48;4.00;;;1.00;;
68377;SDS011;55322;48.146;11.516;2023-03-24T13:48:29;4.75;;;1.00;;
68377;SDS011;55322;48.146;11.516;2023-03-24T13:56:41;4.07;;;0.70;;
68377;SDS011;55322;48.146;11.516;2023-03-24T14:05:06;3.75;;;0.70;;
68377;SDS011;55322;48.146;11.516;2023-03-24T14:12:56;4.03;;;0.63;;
68377;SDS011;55322;48.146;11.516;2023-03-24T14:15:33;3.45;;;0.70;;
68377;SDS011;55322;48.146;11.516;2023-03-24T14:18:14;4.80;;;0.70;;
68377;SDS011;55322;48.146;11.516;2023-03-24T14:23:42;3.67;;;0.70;;
68377;SDS011;55322;48.146;11.516;2023-03-24T14:26:29;4.03;;;0.70;;
68377;SDS011;55322;48.146;11.516;2023-03-24T14:28:58;4.50;;;0.75;;
68377;SDS011;55322;48.146;11.516;2023-03-24T14:33:58;4.10;;;0.63;;
68377;SDS011;55322;48.146;11.516;2023-03-24T14:36:34;3.25;;;0.60;;
68377;SDS011;55322;48.146;11.516;2023-03-24T14:48:05;3.90;;;0.80;;
68377;SDS011;55322;48.146;11.516;2023-03-24T14:50:45;3.70;;;0.70;;
68377;SDS011;55322;48.146;11.516;2023-03-24T14:53:15;4.10;;;0.70;;
68377;SDS011;55322;48.146;11.516;2023-03-24T14:55:43;3.22;;;0.60;;
68377;SDS011;55322;48.146;11.516;2023-03-24T14:58:18;4.25;;;0.65;;
68377;SDS011;55322;48.146;11.516;2023-03-24T15:00:49;3.50;;;0.70;;
68377;SDS011;55322;48.146;11.516;2023-03-24T15:06:02;5.03;;;0.80;;
68377;SDS011;55322;48.146;11.516;2023-03-24T15:08:48;3.85;;;0.60;;
68377;SDS011;55322;48.146;11.516;2023-03-24T15:11:17;3.33;;;0.60;;
68377;SDS011;55322;48.146;11.516;2023-03-24T15:13:52;4.20;;;0.60;;
68377;SDS011;55322;48.146;11.516;2023-03-24T15:16:23;3.50;;;0.70;;
68377;SDS011;55322;48.146;11.516;2023-03-24T15:18:54;4.38;;;0.65;;
68377;SDS011;55322;48.146;11.516;2023-03-24T15:23:48;4.22;;;0.75;;
68377;SDS011;55322;48.146;11.516;2023-03-24T15:26:14;4.70;;;0.90;;
68377;SDS011;55322;48.146;11.516;2023-03-24T15:28:42;4.07;;;0.80;;
68377;SDS011;55322;48.146;11.516;2023-03-24T15:31:08;3.23;;;0.60;;
68377;SDS011;55322;48.146;11.516;2023-03-24T15:33:37;5.20;;;0.80;;
68377;SDS011;55322;48.146;11.516;2023-03-24T15:36:11;3.80;;;0.80;;
68377;SDS011;55322;48.146;11.516;2023-03-24T15:38:38;3.67;;;0.80;;
68377;SDS011;55322;48.146;11.516;2023-03-24T15:41:11;5.13;;;0.80;;
68377;SDS011;55322;48.146;11.516;2023-03-24T15:43:43;3.67;;;0.63;;
68377;SDS011;55322;48.146;11.516;2023-03-24T15:46:21;4.55;;;0.80;;
68377;SDS011;55322;48.146;11.516;2023-03-24T15:48:51;3.75;;;0.80;;
68377;SDS011;55322;48.146;11.516;2023-03-24T15:51:18;3.80;;;0.60;;
68377;SDS011;55322;48.146;11.516;2023-03-24T15:53:52;3.47;;;0.53;;
68377;SDS011;55322;48.146;11.516;2023-03-24T15:56:24;3.25;;;0.60;;
68377;SDS011;55322;48.146;11.516;2023-03-24T16:01:29;4.45;;;0.80;;
68377;SDS011;55322;48.146;11.516;2023-03-24T16:04:00;3.30;;;0.70;;
68377;SDS011;55322;48.146;11.516;2023-03-24T16:06:31;3.30;;;0.57;;
68377;SDS011;55322;48.146;11.516;2023-03-24T16:09:11;3.78;;;0.80;;
68377;SDS011;55322;48.146;11.516;2023-03-24T16:11:39;3.20;;;0.67;;
68377;SDS011;55322;48.146;11.516;2023-03-24T16:16:46;3.55;;;0.75;;
68377;SDS011;55322;48.146;11.516;2023-03-24T16:19:11;4.17;;;0.87;;
68377;SDS011;55322;48.146;11.516;2023-03-24T16:21:37;4.40;;;0.80;;
68377;SDS011;55322;48.146;11.516;2023-03-24T16:24:02;4.00;;;0.80;;
68377;SDS011;55322;48.146;11.516;2023-03-24T16:26:29;4.10;;;0.90;;
68377;SDS011;55322;48.146;11.516;2023-03-24T16:28:59;4.07;;;0.70;;
68377;SDS011;55322;48.146;11.516;2023-03-24T16:31:42;3.72;;;0.70;;
68377;SDS011;55322;48.146;11.516;2023-03-24T16:34:08;5.60;;;0.80;;
68377;SDS011;55322;48.146;11.516;2023-03-24T16:36:34;4.18;;;0.90;;
68377;SDS011;55322;48.146;11.516;2023-03-24T16:39:00;4.40;;;0.90;;
68377;SDS011;55322;48.146;11.516;2023-03-24T16:41:26;5.80;;;1.30;;
68377;SDS011;55322;48.146;11.516;2023-03-24T16:43:52;4.65;;;0.95;;
68377;SDS011;55322;48.146;11.516;2023-03-24T16:48:52;5.97;;;1.10;;
68377;SDS011;55322;48.146;11.516;2023-03-24T16:51:18;6.23;;;1.10;;
68377;SDS011;55322;48.146;11.516;2023-03-24T16:53:44;4.05;;;0.80;;
68377;SDS011;55322;48.146;11.516;2023-03-24T16:56:14;4.50;;;0.77;;
68377;SDS011;55322;48.146;11.516;2023-03-24T16:58:42;4.70;;;0.93;;
68377;SDS011;55322;48.146;11.516;2023-03-24T17:01:14;4.20;;;0.87;;
68377;SDS011;55322;48.146;11.516;2023-03-24T17:03:51;3.73;;;0.80;;
68377;SDS011;55322;48.146;11.516;2023-03-24T17:06:37;4.38;;;0.80;;
68377;SDS011;55322;48.146;11.516;2023-03-24T17:09:05;4.00;;;0.90;;
68377;SDS011;55322;48.146;11.516;2023-03-24T17:11:36;4.20;;;0.88;;
68377;SDS011;55322;48.146;11.516;2023-03-24T17:14:06;3.70;;;0.60;;
68377;SDS011;55322;48.146;11.516;2023-03-24T17:16:36;3.43;;;0.60;;
68377;SDS011;55322;48.146;11.516;2023-03-24T17:19:03;4.22;;;0.60;;